sensor_id;sensor_type;location;lat;lon;timestamp;P1;durP1;ratioP1;P2;durP2;ratioP2
66425;SDS011;53237;46.158;14.604;2023-03-20T00:00:42;8.35;;;6.80;;
66425;SDS011;53237;46.158;14.604;2023-03-20T00:03:12;5.50;;;4.57;;
66425;SDS011;53237;46.158;14.604;2023-03-20T00:05:38;5.82;;;4.63;;
66425;SDS011;53237;46.158;14.604;2023-03-20T00:08:05;5.40;;;4.60;;
66425;SDS011;53237;46.158;14.604;2023-03-20T00:10:34;6.78;;;5.25;;
66425;SDS011;53237;46.158;14.604;2023-03-20T00:13:00;6.68;;;4.50;;
66425;SDS011;53237;46.158;14.604;2023-03-20T00:15:45;6.25;;;5.35;;
66425;SDS011;53237;46.158;14.604;2023-03-20T00:18:15;5.95;;;4.55;;
66425;SDS011;53237;46.158;14.604;2023-03-20T00:20:46;7.10;;;4.68;;
66425;SDS011;53237;46.158;14.604;2023-03-20T00:23:13;6.15;;;4.40;;
66425;SDS011;53237;46.158;14.604;2023-03-20T00:25:39;5.75;;;4.82;;
66425;SDS011;53237;46.158;14.604;2023-03-20T00:28:40;5.57;;;4.60;;
66425;SDS011;53237;46.158;14.604;2023-03-20T00:30:58;7.18;;;5.78;;
66425;SDS011;53237;46.158;14.604;2023-03-20T00:33:24;6.63;;;4.80;;
66425;SDS011;53237;46.158;14.604;2023-03-20T00:35:51;6.45;;;4.20;;
66425;SDS011;53237;46.158;14.604;2023-03-20T00:38:17;6.32;;;5.70;;
66425;SDS011;53237;46.158;14.604;2023-03-20T00:40:43;7.30;;;4.90;;
66425;SDS011;53237;46.158;14.604;2023-03-20T00:43:09;5.82;;;5.03;;
66425;SDS011;53237;46.158;14.604;2023-03-20T00:45:37;5.00;;;4.50;;
66425;SDS011;53237;46.158;14.604;2023-03-20T00:48:04;5.90;;;4.63;;
66425;SDS011;53237;46.158;14.604;2023-03-20T00:50:30;6.40;;;4.93;;
66425;SDS011;53237;46.158;14.604;2023-03-20T00:52:56;5.00;;;4.30;;
66425;SDS011;53237;46.158;14.604;2023-03-20T00:55:24;6.68;;;4.90;;
66425;SDS011;53237;46.158;14.604;2023-03-20T00:57:51;5.63;;;4.75;;
66425;SDS011;53237;46.158;14.604;2023-03-20T01:00:20;5.35;;;4.10;;
66425;SDS011;53237;46.158;14.604;2023-03-20T01:02:48;5.95;;;5.00;;
66425;SDS011;53237;46.158;14.604;2023-03-20T01:05:14;5.65;;;4.55;;
66425;SDS011;53237;46.158;14.604;2023-03-20T01:07:40;6.72;;;4.75;;
66425;SDS011;53237;46.158;14.604;2023-03-20T01:10:07;5.55;;;4.20;;
66425;SDS011;53237;46.158;14.604;2023-03-20T01:12:33;4.72;;;4.07;;
66425;SDS011;53237;46.158;14.604;2023-03-20T01:14:59;5.65;;;4.30;;
66425;SDS011;53237;46.158;14.604;2023-03-20T01:17:25;5.07;;;4.30;;
66425;SDS011;53237;46.158;14.604;2023-03-20T01:19:53;5.03;;;4.20;;
66425;SDS011;53237;46.158;14.604;2023-03-20T01:22:19;4.50;;;4.07;;
66425;SDS011;53237;46.158;14.604;2023-03-20T01:24:45;5.93;;;4.32;;
66425;SDS011;53237;46.158;14.604;2023-03-20T01:27:13;4.85;;;4.20;;
66425;SDS011;53237;46.158;14.604;2023-03-20T01:29:39;6.28;;;4.43;;
66425;SDS011;53237;46.158;14.604;2023-03-20T01:32:13;5.97;;;4.45;;
66425;SDS011;53237;46.158;14.604;2023-03-20T01:34:39;4.40;;;4.00;;
66425;SDS011;53237;46.158;14.604;2023-03-20T01:37:08;4.40;;;4.00;;
66425;SDS011;53237;46.158;14.604;2023-03-20T01:39:36;4.15;;;3.75;;
66425;SDS011;53237;46.158;14.604;2023-03-20T01:42:02;6.07;;;4.10;;
66425;SDS011;53237;46.158;14.604;2023-03-20T01:44:30;4.65;;;3.90;;
66425;SDS011;53237;46.158;14.604;2023-03-20T01:46:57;4.38;;;3.85;;
66425;SDS011;53237;46.158;14.604;2023-03-20T01:51:52;4.60;;;4.10;;
66425;SDS011;53237;46.158;14.604;2023-03-20T01:54:20;4.30;;;3.70;;
66425;SDS011;53237;46.158;14.604;2023-03-20T01:59:16;5.07;;;4.57;;
66425;SDS011;53237;46.158;14.604;2023-03-20T02:01:42;4.50;;;4.10;;
66425;SDS011;53237;46.158;14.604;2023-03-20T02:04:09;5.03;;;4.15;;
66425;SDS011;53237;46.158;14.604;2023-03-20T02:06:36;5.10;;;4.15;;
66425;SDS011;53237;46.158;14.604;2023-03-20T02:09:04;4.18;;;3.42;;
66425;SDS011;53237;46.158;14.604;2023-03-20T02:11:30;6.43;;;5.82;;
66425;SDS011;53237;46.158;14.604;2023-03-20T02:13:57;4.38;;;3.97;;
66425;SDS011;53237;46.158;14.604;2023-03-20T02:16:24;4.80;;;4.05;;
66425;SDS011;53237;46.158;14.604;2023-03-20T02:18:50;5.70;;;4.15;;
66425;SDS011;53237;46.158;14.604;2023-03-20T02:36:58;6.72;;;4.57;;
66425;SDS011;53237;46.158;14.604;2023-03-20T02:39:37;9.05;;;6.75;;
66425;SDS011;53237;46.158;14.604;2023-03-20T02:42:11;9.82;;;6.10;;
66425;SDS011;53237;46.158;14.604;2023-03-20T02:44:54;6.57;;;5.53;;
66425;SDS011;53237;46.158;14.604;2023-03-20T02:50:14;6.57;;;4.95;;
66425;SDS011;53237;46.158;14.604;2023-03-20T02:52:52;6.68;;;4.78;;
66425;SDS011;53237;46.158;14.604;2023-03-20T02:58:17;6.65;;;4.97;;
66425;SDS011;53237;46.158;14.604;2023-03-20T03:05:46;6.57;;;5.05;;
66425;SDS011;53237;46.158;14.604;2023-03-20T03:08:12;5.70;;;4.78;;
66425;SDS011;53237;46.158;14.604;2023-03-20T03:10:58;8.32;;;5.38;;
66425;SDS011;53237;46.158;14.604;2023-03-20T03:13:27;4.57;;;4.18;;
66425;SDS011;53237;46.158;14.604;2023-03-20T03:15:54;6.57;;;5.18;;
66425;SDS011;53237;46.158;14.604;2023-03-20T03:18:23;8.00;;;5.43;;
66425;SDS011;53237;46.158;14.604;2023-03-20T03:20:51;6.70;;;5.15;;
66425;SDS011;53237;46.158;14.604;2023-03-20T03:25:58;7.45;;;4.50;;
66425;SDS011;53237;46.158;14.604;2023-03-20T03:28:45;5.55;;;4.80;;
66425;SDS011;53237;46.158;14.604;2023-03-20T03:31:14;4.57;;;4.07;;
66425;SDS011;53237;46.158;14.604;2023-03-20T03:33:42;5.65;;;4.53;;
66425;SDS011;53237;46.158;14.604;2023-03-20T03:36:11;5.28;;;4.55;;
66425;SDS011;53237;46.158;14.604;2023-03-20T03:43:42;6.28;;;5.07;;
66425;SDS011;53237;46.158;14.604;2023-03-20T03:48:50;5.50;;;4.75;;
66425;SDS011;53237;46.158;14.604;2023-03-20T03:51:19;5.43;;;4.70;;
66425;SDS011;53237;46.158;14.604;2023-03-20T03:53:47;5.80;;;4.50;;
66425;SDS011;53237;46.158;14.604;2023-03-20T03:56:15;5.82;;;4.75;;
66425;SDS011;53237;46.158;14.604;2023-03-20T03:58:48;6.28;;;4.47;;
66425;SDS011;53237;46.158;14.604;2023-03-20T04:01:16;5.55;;;4.85;;
66425;SDS011;53237;46.158;14.604;2023-03-20T04:03:45;4.90;;;4.30;;
66425;SDS011;53237;46.158;14.604;2023-03-20T04:06:13;5.07;;;4.55;;
66425;SDS011;53237;46.158;14.604;2023-03-20T04:08:41;5.55;;;4.72;;
66425;SDS011;53237;46.158;14.604;2023-03-20T04:11:14;6.30;;;5.40;;
66425;SDS011;53237;46.158;14.604;2023-03-20T04:13:40;5.93;;;4.82;;
66425;SDS011;53237;46.158;14.604;2023-03-20T04:16:08;6.70;;;5.45;;
66425;SDS011;53237;46.158;14.604;2023-03-20T04:18:35;7.35;;;4.72;;
66425;SDS011;53237;46.158;14.604;2023-03-20T04:21:01;4.43;;;4.03;;
66425;SDS011;53237;46.158;14.604;2023-03-20T04:23:27;5.45;;;4.30;;
66425;SDS011;53237;46.158;14.604;2023-03-20T04:25:53;5.82;;;4.65;;
66425;SDS011;53237;46.158;14.604;2023-03-20T04:28:20;4.75;;;4.25;;
66425;SDS011;53237;46.158;14.604;2023-03-20T04:30:51;4.50;;;4.10;;
66425;SDS011;53237;46.158;14.604;2023-03-20T04:33:17;5.13;;;4.67;;
66425;SDS011;53237;46.158;14.604;2023-03-20T04:35:43;6.60;;;4.50;;
66425;SDS011;53237;46.158;14.604;2023-03-20T04:38:09;6.00;;;4.93;;
66425;SDS011;53237;46.158;14.604;2023-03-20T04:40:35;7.18;;;5.07;;
66425;SDS011;53237;46.158;14.604;2023-03-20T04:43:01;6.38;;;4.97;;
66425;SDS011;53237;46.158;14.604;2023-03-20T04:45:27;4.95;;;4.47;;
66425;SDS011;53237;46.158;14.604;2023-03-20T04:47:53;4.47;;;4.03;;
66425;SDS011;53237;46.158;14.604;2023-03-20T04:50:20;5.25;;;4.55;;
66425;SDS011;53237;46.158;14.604;2023-03-20T04:52:46;5.72;;;4.78;;
66425;SDS011;53237;46.158;14.604;2023-03-20T04:55:12;5.43;;;4.60;;
66425;SDS011;53237;46.158;14.604;2023-03-20T04:57:38;5.45;;;4.68;;
66425;SDS011;53237;46.158;14.604;2023-03-20T05:00:05;4.88;;;4.47;;
66425;SDS011;53237;46.158;14.604;2023-03-20T05:02:31;4.55;;;4.00;;
66425;SDS011;53237;46.158;14.604;2023-03-20T05:04:57;6.18;;;4.55;;
66425;SDS011;53237;46.158;14.604;2023-03-20T05:07:23;5.25;;;4.53;;
66425;SDS011;53237;46.158;14.604;2023-03-20T05:09:49;5.55;;;4.80;;
66425;SDS011;53237;46.158;14.604;2023-03-20T05:12:15;5.20;;;4.38;;
66425;SDS011;53237;46.158;14.604;2023-03-20T05:14:41;6.20;;;4.93;;
66425;SDS011;53237;46.158;14.604;2023-03-20T05:17:07;9.13;;;5.80;;
66425;SDS011;53237;46.158;14.604;2023-03-20T05:19:33;5.70;;;4.90;;
66425;SDS011;53237;46.158;14.604;2023-03-20T05:21:59;5.70;;;5.10;;
66425;SDS011;53237;46.158;14.604;2023-03-20T05:24:25;6.72;;;5.13;;
66425;SDS011;53237;46.158;14.604;2023-03-20T05:26:53;6.40;;;4.82;;
66425;SDS011;53237;46.158;14.604;2023-03-20T05:29:19;5.28;;;4.55;;
66425;SDS011;53237;46.158;14.604;2023-03-20T05:31:45;5.85;;;4.60;;
66425;SDS011;53237;46.158;14.604;2023-03-20T05:34:11;6.00;;;4.90;;
66425;SDS011;53237;46.158;14.604;2023-03-20T05:36:37;5.72;;;4.95;;
66425;SDS011;53237;46.158;14.604;2023-03-20T05:39:03;6.55;;;5.07;;
66425;SDS011;53237;46.158;14.604;2023-03-20T05:41:30;5.85;;;4.93;;
66425;SDS011;53237;46.158;14.604;2023-03-20T05:43:56;5.57;;;4.85;;
66425;SDS011;53237;46.158;14.604;2023-03-20T05:46:22;6.32;;;4.70;;
66425;SDS011;53237;46.158;14.604;2023-03-20T05:48:48;7.03;;;5.15;;
66425;SDS011;53237;46.158;14.604;2023-03-20T05:51:14;6.60;;;5.30;;
66425;SDS011;53237;46.158;14.604;2023-03-20T05:53:40;8.02;;;5.70;;
66425;SDS011;53237;46.158;14.604;2023-03-20T05:56:06;6.85;;;5.40;;
66425;SDS011;53237;46.158;14.604;2023-03-20T05:58:33;9.27;;;6.35;;
66425;SDS011;53237;46.158;14.604;2023-03-20T06:01:00;7.47;;;5.80;;
66425;SDS011;53237;46.158;14.604;2023-03-20T06:03:26;6.70;;;5.82;;
66425;SDS011;53237;46.158;14.604;2023-03-20T06:05:52;10.35;;;6.47;;
66425;SDS011;53237;46.158;14.604;2023-03-20T06:08:18;9.10;;;6.00;;
66425;SDS011;53237;46.158;14.604;2023-03-20T06:10:44;8.32;;;6.47;;
66425;SDS011;53237;46.158;14.604;2023-03-20T06:13:10;9.93;;;6.78;;
66425;SDS011;53237;46.158;14.604;2023-03-20T06:15:36;8.63;;;6.18;;
66425;SDS011;53237;46.158;14.604;2023-03-20T06:18:02;6.75;;;5.93;;
66425;SDS011;53237;46.158;14.604;2023-03-20T06:20:28;6.88;;;6.00;;
66425;SDS011;53237;46.158;14.604;2023-03-20T06:22:55;7.68;;;6.40;;
66425;SDS011;53237;46.158;14.604;2023-03-20T06:25:21;7.80;;;6.55;;
66425;SDS011;53237;46.158;14.604;2023-03-20T06:27:47;10.30;;;8.55;;
66425;SDS011;53237;46.158;14.604;2023-03-20T06:30:14;16.10;;;11.88;;
66425;SDS011;53237;46.158;14.604;2023-03-20T06:32:40;10.02;;;7.25;;
66425;SDS011;53237;46.158;14.604;2023-03-20T06:35:06;11.13;;;7.07;;
66425;SDS011;53237;46.158;14.604;2023-03-20T06:37:33;11.10;;;6.75;;
66425;SDS011;53237;46.158;14.604;2023-03-20T06:40:00;8.38;;;6.30;;
66425;SDS011;53237;46.158;14.604;2023-03-20T06:42:26;9.65;;;7.05;;
66425;SDS011;53237;46.158;14.604;2023-03-20T06:44:52;9.30;;;6.32;;
66425;SDS011;53237;46.158;14.604;2023-03-20T06:47:18;8.00;;;6.43;;
66425;SDS011;53237;46.158;14.604;2023-03-20T06:49:44;10.40;;;8.50;;
66425;SDS011;53237;46.158;14.604;2023-03-20T06:52:14;9.65;;;7.45;;
66425;SDS011;53237;46.158;14.604;2023-03-20T06:54:41;14.32;;;7.28;;
66425;SDS011;53237;46.158;14.604;2023-03-20T06:57:07;9.57;;;7.20;;
66425;SDS011;53237;46.158;14.604;2023-03-20T06:59:33;8.05;;;6.95;;
66425;SDS011;53237;46.158;14.604;2023-03-20T07:02:00;9.73;;;6.72;;
66425;SDS011;53237;46.158;14.604;2023-03-20T07:04:27;7.00;;;5.72;;
66425;SDS011;53237;46.158;14.604;2023-03-20T07:06:54;8.13;;;6.82;;
66425;SDS011;53237;46.158;14.604;2023-03-20T07:09:20;8.43;;;6.50;;
66425;SDS011;53237;46.158;14.604;2023-03-20T07:11:49;9.65;;;7.10;;
66425;SDS011;53237;46.158;14.604;2023-03-20T07:14:15;8.23;;;6.50;;
66425;SDS011;53237;46.158;14.604;2023-03-20T07:16:41;10.88;;;7.10;;
66425;SDS011;53237;46.158;14.604;2023-03-20T07:19:07;9.40;;;7.53;;
66425;SDS011;53237;46.158;14.604;2023-03-20T07:21:34;10.20;;;7.32;;
66425;SDS011;53237;46.158;14.604;2023-03-20T07:24:00;11.00;;;8.40;;
66425;SDS011;53237;46.158;14.604;2023-03-20T07:26:26;11.52;;;7.70;;
66425;SDS011;53237;46.158;14.604;2023-03-20T07:28:53;9.60;;;7.03;;
66425;SDS011;53237;46.158;14.604;2023-03-20T07:31:20;12.15;;;6.88;;
66425;SDS011;53237;46.158;14.604;2023-03-20T07:33:46;9.95;;;7.32;;
66425;SDS011;53237;46.158;14.604;2023-03-20T07:36:13;14.48;;;7.82;;
66425;SDS011;53237;46.158;14.604;2023-03-20T07:38:39;12.13;;;7.57;;
66425;SDS011;53237;46.158;14.604;2023-03-20T07:41:05;9.43;;;7.90;;
66425;SDS011;53237;46.158;14.604;2023-03-20T07:43:31;17.52;;;9.10;;
66425;SDS011;53237;46.158;14.604;2023-03-20T07:45:57;13.38;;;8.70;;
66425;SDS011;53237;46.158;14.604;2023-03-20T07:48:26;13.10;;;7.40;;
66425;SDS011;53237;46.158;14.604;2023-03-20T07:50:52;11.93;;;7.38;;
66425;SDS011;53237;46.158;14.604;2023-03-20T07:53:18;8.77;;;7.03;;
66425;SDS011;53237;46.158;14.604;2023-03-20T07:55:44;13.38;;;7.90;;
66425;SDS011;53237;46.158;14.604;2023-03-20T07:58:10;13.32;;;8.85;;
66425;SDS011;53237;46.158;14.604;2023-03-20T08:00:36;12.20;;;9.30;;
66425;SDS011;53237;46.158;14.604;2023-03-20T08:03:02;13.15;;;8.52;;
66425;SDS011;53237;46.158;14.604;2023-03-20T08:05:28;12.15;;;8.27;;
66425;SDS011;53237;46.158;14.604;2023-03-20T08:07:54;8.65;;;7.63;;
66425;SDS011;53237;46.158;14.604;2023-03-20T08:10:20;10.52;;;7.78;;
66425;SDS011;53237;46.158;14.604;2023-03-20T08:12:46;10.63;;;8.15;;
66425;SDS011;53237;46.158;14.604;2023-03-20T08:15:12;9.82;;;7.78;;
66425;SDS011;53237;46.158;14.604;2023-03-20T08:17:42;14.98;;;9.50;;
66425;SDS011;53237;46.158;14.604;2023-03-20T08:20:08;11.27;;;7.10;;
66425;SDS011;53237;46.158;14.604;2023-03-20T08:22:35;10.18;;;6.93;;
66425;SDS011;53237;46.158;14.604;2023-03-20T08:25:01;7.55;;;6.05;;
66425;SDS011;53237;46.158;14.604;2023-03-20T08:27:27;8.93;;;6.47;;
66425;SDS011;53237;46.158;14.604;2023-03-20T08:29:53;7.60;;;6.18;;
66425;SDS011;53237;46.158;14.604;2023-03-20T08:32:19;9.23;;;6.45;;
66425;SDS011;53237;46.158;14.604;2023-03-20T08:34:45;9.73;;;6.07;;
66425;SDS011;53237;46.158;14.604;2023-03-20T08:37:11;9.98;;;6.40;;
66425;SDS011;53237;46.158;14.604;2023-03-20T08:39:38;10.30;;;6.60;;
66425;SDS011;53237;46.158;14.604;2023-03-20T08:42:05;11.57;;;7.40;;
66425;SDS011;53237;46.158;14.604;2023-03-20T08:44:31;9.35;;;6.55;;
66425;SDS011;53237;46.158;14.604;2023-03-20T08:46:58;10.48;;;8.45;;
66425;SDS011;53237;46.158;14.604;2023-03-20T08:49:24;9.82;;;7.70;;
66425;SDS011;53237;46.158;14.604;2023-03-20T08:51:50;7.50;;;6.40;;
66425;SDS011;53237;46.158;14.604;2023-03-20T08:54:16;6.53;;;5.43;;
66425;SDS011;53237;46.158;14.604;2023-03-20T08:56:42;7.43;;;5.93;;
66425;SDS011;53237;46.158;14.604;2023-03-20T08:59:08;9.82;;;6.60;;
66425;SDS011;53237;46.158;14.604;2023-03-20T09:01:34;8.25;;;7.03;;
66425;SDS011;53237;46.158;14.604;2023-03-20T09:04:00;8.15;;;6.72;;
66425;SDS011;53237;46.158;14.604;2023-03-20T09:06:26;6.82;;;6.22;;
66425;SDS011;53237;46.158;14.604;2023-03-20T09:08:53;7.95;;;6.38;;
66425;SDS011;53237;46.158;14.604;2023-03-20T09:11:20;7.93;;;6.40;;
66425;SDS011;53237;46.158;14.604;2023-03-20T09:13:46;10.95;;;7.28;;
66425;SDS011;53237;46.158;14.604;2023-03-20T09:16:12;11.27;;;7.60;;
66425;SDS011;53237;46.158;14.604;2023-03-20T09:18:38;9.30;;;7.20;;
66425;SDS011;53237;46.158;14.604;2023-03-20T09:21:04;8.32;;;6.78;;
66425;SDS011;53237;46.158;14.604;2023-03-20T09:23:31;8.48;;;6.15;;
66425;SDS011;53237;46.158;14.604;2023-03-20T09:25:57;9.52;;;6.35;;
66425;SDS011;53237;46.158;14.604;2023-03-20T09:28:23;9.38;;;6.45;;
66425;SDS011;53237;46.158;14.604;2023-03-20T09:30:53;7.78;;;6.07;;
66425;SDS011;53237;46.158;14.604;2023-03-20T09:33:19;6.10;;;5.55;;
66425;SDS011;53237;46.158;14.604;2023-03-20T09:35:45;7.55;;;5.55;;
66425;SDS011;53237;46.158;14.604;2023-03-20T09:38:11;7.43;;;5.50;;
66425;SDS011;53237;46.158;14.604;2023-03-20T09:40:51;7.13;;;5.60;;
66425;SDS011;53237;46.158;14.604;2023-03-20T09:44:02;5.60;;;4.95;;
66425;SDS011;53237;46.158;14.604;2023-03-20T09:46:18;6.35;;;4.72;;
66425;SDS011;53237;46.158;14.604;2023-03-20T09:51:41;6.50;;;4.80;;
66425;SDS011;53237;46.158;14.604;2023-03-20T09:54:11;6.82;;;5.22;;
66425;SDS011;53237;46.158;14.604;2023-03-20T09:56:39;6.45;;;5.78;;
66425;SDS011;53237;46.158;14.604;2023-03-20T09:59:05;6.72;;;5.03;;
66425;SDS011;53237;46.158;14.604;2023-03-20T10:01:39;6.47;;;5.47;;
66425;SDS011;53237;46.158;14.604;2023-03-20T10:04:08;6.43;;;4.90;;
66425;SDS011;53237;46.158;14.604;2023-03-20T10:06:35;5.88;;;5.18;;
66425;SDS011;53237;46.158;14.604;2023-03-20T10:09:02;8.30;;;5.82;;
66425;SDS011;53237;46.158;14.604;2023-03-20T10:11:33;7.45;;;5.45;;
66425;SDS011;53237;46.158;14.604;2023-03-20T10:24:48;6.27;;;4.80;;
66425;SDS011;53237;46.158;14.604;2023-03-20T10:29:49;8.02;;;5.68;;
66425;SDS011;53237;46.158;14.604;2023-03-20T10:34:51;6.18;;;5.57;;
66425;SDS011;53237;46.158;14.604;2023-03-20T10:40:24;7.43;;;5.53;;
66425;SDS011;53237;46.158;14.604;2023-03-20T10:42:51;5.55;;;5.05;;
66425;SDS011;53237;46.158;14.604;2023-03-20T10:47:51;8.00;;;5.30;;
66425;SDS011;53237;46.158;14.604;2023-03-20T10:50:21;8.10;;;5.70;;
66425;SDS011;53237;46.158;14.604;2023-03-20T10:52:48;6.03;;;5.43;;
66425;SDS011;53237;46.158;14.604;2023-03-20T10:55:26;9.70;;;5.80;;
66425;SDS011;53237;46.158;14.604;2023-03-20T10:57:55;10.23;;;7.63;;
66425;SDS011;53237;46.158;14.604;2023-03-20T11:00:23;9.73;;;6.53;;
66425;SDS011;53237;46.158;14.604;2023-03-20T11:02:51;6.78;;;5.70;;
66425;SDS011;53237;46.158;14.604;2023-03-20T11:05:26;7.05;;;5.65;;
66425;SDS011;53237;46.158;14.604;2023-03-20T11:08:01;6.45;;;5.25;;
66425;SDS011;53237;46.158;14.604;2023-03-20T11:10:28;6.95;;;5.70;;
66425;SDS011;53237;46.158;14.604;2023-03-20T11:12:56;7.18;;;5.32;;
66425;SDS011;53237;46.158;14.604;2023-03-20T11:17:51;7.50;;;5.95;;
66425;SDS011;53237;46.158;14.604;2023-03-20T11:20:18;6.75;;;6.05;;
66425;SDS011;53237;46.158;14.604;2023-03-20T11:22:45;7.13;;;6.13;;
66425;SDS011;53237;46.158;14.604;2023-03-20T11:25:21;9.05;;;6.05;;
66425;SDS011;53237;46.158;14.604;2023-03-20T11:27:49;6.45;;;5.47;;
66425;SDS011;53237;46.158;14.604;2023-03-20T11:30:15;7.68;;;5.72;;
66425;SDS011;53237;46.158;14.604;2023-03-20T11:32:46;8.23;;;5.43;;
66425;SDS011;53237;46.158;14.604;2023-03-20T11:37:51;7.38;;;5.70;;
66425;SDS011;53237;46.158;14.604;2023-03-20T11:42:51;9.45;;;6.60;;
66425;SDS011;53237;46.158;14.604;2023-03-20T11:45:17;6.90;;;5.10;;
66425;SDS011;53237;46.158;14.604;2023-03-20T11:47:47;5.80;;;5.20;;
66425;SDS011;53237;46.158;14.604;2023-03-20T11:50:48;5.93;;;5.32;;
66425;SDS011;53237;46.158;14.604;2023-03-20T11:53:40;5.97;;;5.38;;
66425;SDS011;53237;46.158;14.604;2023-03-20T11:58:53;6.22;;;5.63;;
66425;SDS011;53237;46.158;14.604;2023-03-20T12:01:20;6.93;;;5.35;;
66425;SDS011;53237;46.158;14.604;2023-03-20T12:04:03;6.88;;;5.82;;
66425;SDS011;53237;46.158;14.604;2023-03-20T12:09:25;6.78;;;5.82;;
66425;SDS011;53237;46.158;14.604;2023-03-20T12:11:53;6.18;;;5.47;;
66425;SDS011;53237;46.158;14.604;2023-03-20T12:14:21;7.93;;;6.75;;
66425;SDS011;53237;46.158;14.604;2023-03-20T12:16:49;8.05;;;6.50;;
66425;SDS011;53237;46.158;14.604;2023-03-20T12:19:18;8.48;;;6.53;;
66425;SDS011;53237;46.158;14.604;2023-03-20T12:21:47;9.65;;;6.85;;
66425;SDS011;53237;46.158;14.604;2023-03-20T12:26:51;8.80;;;6.47;;
66425;SDS011;53237;46.158;14.604;2023-03-20T12:29:26;9.82;;;6.50;;
66425;SDS011;53237;46.158;14.604;2023-03-20T12:32:01;8.25;;;6.30;;
66425;SDS011;53237;46.158;14.604;2023-03-20T12:36:57;10.00;;;7.75;;
66425;SDS011;53237;46.158;14.604;2023-03-20T12:39:34;14.70;;;12.60;;
66425;SDS011;53237;46.158;14.604;2023-03-20T12:44:52;11.38;;;10.18;;
66425;SDS011;53237;46.158;14.604;2023-03-20T12:47:36;33.92;;;28.45;;
66425;SDS011;53237;46.158;14.604;2023-03-20T12:55:25;16.83;;;13.65;;
66425;SDS011;53237;46.158;14.604;2023-03-20T13:00:26;11.77;;;8.95;;
66425;SDS011;53237;46.158;14.604;2023-03-20T13:03:08;11.38;;;8.85;;
66425;SDS011;53237;46.158;14.604;2023-03-20T13:05:45;11.95;;;9.07;;
66425;SDS011;53237;46.158;14.604;2023-03-20T13:13:38;9.85;;;7.13;;
66425;SDS011;53237;46.158;14.604;2023-03-20T13:16:21;11.48;;;8.75;;
66425;SDS011;53237;46.158;14.604;2023-03-20T13:21:21;11.50;;;8.50;;
66425;SDS011;53237;46.158;14.604;2023-03-20T13:23:59;10.77;;;8.60;;
66425;SDS011;53237;46.158;14.604;2023-03-20T13:26:38;10.98;;;8.98;;
66425;SDS011;53237;46.158;14.604;2023-03-20T13:32:03;11.90;;;8.10;;
66425;SDS011;53237;46.158;14.604;2023-03-20T13:39:34;15.38;;;11.00;;
66425;SDS011;53237;46.158;14.604;2023-03-20T13:42:01;11.07;;;8.73;;
66425;SDS011;53237;46.158;14.604;2023-03-20T13:44:29;8.75;;;7.63;;
66425;SDS011;53237;46.158;14.604;2023-03-20T13:47:00;9.90;;;7.78;;
66425;SDS011;53237;46.158;14.604;2023-03-20T13:49:35;7.78;;;6.97;;
66425;SDS011;53237;46.158;14.604;2023-03-20T13:52:10;11.00;;;8.50;;
66425;SDS011;53237;46.158;14.604;2023-03-20T14:04:43;16.60;;;12.70;;
66425;SDS011;53237;46.158;14.604;2023-03-20T14:07:25;11.35;;;10.15;;
66425;SDS011;53237;46.158;14.604;2023-03-20T14:09:55;10.00;;;8.90;;
66425;SDS011;53237;46.158;14.604;2023-03-20T14:12:24;10.15;;;8.50;;
66425;SDS011;53237;46.158;14.604;2023-03-20T14:14:54;12.80;;;9.00;;
66425;SDS011;53237;46.158;14.604;2023-03-20T14:19:50;16.05;;;13.15;;
66425;SDS011;53237;46.158;14.604;2023-03-20T14:22:19;16.13;;;13.90;;
66425;SDS011;53237;46.158;14.604;2023-03-20T14:25:28;15.77;;;12.95;;
66425;SDS011;53237;46.158;14.604;2023-03-20T14:27:35;16.38;;;14.38;;
66425;SDS011;53237;46.158;14.604;2023-03-20T14:30:38;20.98;;;14.90;;
66425;SDS011;53237;46.158;14.604;2023-03-20T14:33:07;16.67;;;12.60;;
66425;SDS011;53237;46.158;14.604;2023-03-20T14:36:09;9.80;;;8.73;;
66425;SDS011;53237;46.158;14.604;2023-03-20T14:38:43;9.90;;;8.68;;
66425;SDS011;53237;46.158;14.604;2023-03-20T14:48:54;11.32;;;9.18;;
66425;SDS011;53237;46.158;14.604;2023-03-20T14:56:40;10.75;;;9.63;;
66425;SDS011;53237;46.158;14.604;2023-03-20T14:59:07;11.45;;;10.20;;
66425;SDS011;53237;46.158;14.604;2023-03-20T15:06:33;14.25;;;12.77;;
66425;SDS011;53237;46.158;14.604;2023-03-20T15:09:03;13.32;;;11.90;;
66425;SDS011;53237;46.158;14.604;2023-03-20T15:11:30;12.48;;;9.20;;
66425;SDS011;53237;46.158;14.604;2023-03-20T15:13:57;13.32;;;11.30;;
66425;SDS011;53237;46.158;14.604;2023-03-20T15:16:26;17.83;;;15.05;;
66425;SDS011;53237;46.158;14.604;2023-03-20T15:18:53;17.85;;;15.50;;
66425;SDS011;53237;46.158;14.604;2023-03-20T15:21:20;24.25;;;18.50;;
66425;SDS011;53237;46.158;14.604;2023-03-20T15:23:52;18.65;;;14.88;;
66425;SDS011;53237;46.158;14.604;2023-03-20T15:26:18;23.13;;;17.67;;
66425;SDS011;53237;46.158;14.604;2023-03-20T15:28:49;14.75;;;11.95;;
66425;SDS011;53237;46.158;14.604;2023-03-20T15:31:25;21.60;;;17.48;;
66425;SDS011;53237;46.158;14.604;2023-03-20T15:33:51;16.45;;;12.80;;
66425;SDS011;53237;46.158;14.604;2023-03-20T15:36:19;14.80;;;12.10;;
66425;SDS011;53237;46.158;14.604;2023-03-20T15:38:46;27.33;;;20.77;;
66425;SDS011;53237;46.158;14.604;2023-03-20T15:41:29;29.98;;;21.85;;
66425;SDS011;53237;46.158;14.604;2023-03-20T15:46:40;23.13;;;15.40;;
66425;SDS011;53237;46.158;14.604;2023-03-20T15:49:18;25.17;;;16.73;;
66425;SDS011;53237;46.158;14.604;2023-03-20T15:51:45;23.98;;;16.00;;
66425;SDS011;53237;46.158;14.604;2023-03-20T15:54:15;25.98;;;15.85;;
66425;SDS011;53237;46.158;14.604;2023-03-20T15:56:42;20.45;;;15.50;;
66425;SDS011;53237;46.158;14.604;2023-03-20T15:59:13;22.35;;;16.70;;
66425;SDS011;53237;46.158;14.604;2023-03-20T16:01:40;17.00;;;14.02;;
66425;SDS011;53237;46.158;14.604;2023-03-20T16:04:06;17.27;;;14.75;;
66425;SDS011;53237;46.158;14.604;2023-03-20T16:06:33;15.88;;;13.73;;
66425;SDS011;53237;46.158;14.604;2023-03-20T16:09:01;15.35;;;12.20;;
66425;SDS011;53237;46.158;14.604;2023-03-20T16:11:37;14.18;;;12.15;;
66425;SDS011;53237;46.158;14.604;2023-03-20T16:14:04;16.08;;;11.40;;
66425;SDS011;53237;46.158;14.604;2023-03-20T16:16:30;11.43;;;9.73;;
66425;SDS011;53237;46.158;14.604;2023-03-20T16:19:01;13.10;;;9.98;;
66425;SDS011;53237;46.158;14.604;2023-03-20T16:21:28;14.48;;;10.70;;
66425;SDS011;53237;46.158;14.604;2023-03-20T16:23:55;12.65;;;9.98;;
66425;SDS011;53237;46.158;14.604;2023-03-20T16:26:23;15.43;;;10.60;;
66425;SDS011;53237;46.158;14.604;2023-03-20T16:28:59;18.95;;;12.35;;
66425;SDS011;53237;46.158;14.604;2023-03-20T16:31:29;20.73;;;14.70;;
66425;SDS011;53237;46.158;14.604;2023-03-20T16:33:58;23.75;;;14.38;;
66425;SDS011;53237;46.158;14.604;2023-03-20T16:36:29;22.85;;;16.05;;
66425;SDS011;53237;46.158;14.604;2023-03-20T16:38:56;21.08;;;16.23;;
66425;SDS011;53237;46.158;14.604;2023-03-20T16:43:53;21.65;;;19.05;;
66425;SDS011;53237;46.158;14.604;2023-03-20T16:46:22;26.05;;;20.65;;
66425;SDS011;53237;46.158;14.604;2023-03-20T16:48:50;28.45;;;22.27;;
66425;SDS011;53237;46.158;14.604;2023-03-20T16:51:21;26.27;;;20.58;;
66425;SDS011;53237;46.158;14.604;2023-03-20T16:53:49;26.17;;;18.48;;
66425;SDS011;53237;46.158;14.604;2023-03-20T16:56:20;23.98;;;18.55;;
66425;SDS011;53237;46.158;14.604;2023-03-20T16:58:46;27.45;;;21.67;;
66425;SDS011;53237;46.158;14.604;2023-03-20T17:01:14;37.42;;;28.00;;
66425;SDS011;53237;46.158;14.604;2023-03-20T17:03:45;42.60;;;32.70;;